Latest Weather Observations for Sydney Olympic Park

IDN60801

Issued at 11:22 pm EDT Saturday 19 January 2019 (issued every 10 minutes, with the page automatically refreshed every 10 minutes)

About weather observations | Map of weather stations | Latest weather observations for NSW | Other Formats
Station Details ID: 066212 Name: SYDNEY OLYMPIC PARK AWS (ARCHERY CENTRE) Lat: -33.83 Lon: 151.07 Height: 4.0 m
Data from the previous 72 hours. | See also: Recent months at Sydney Olympic Park
Date/Time
EDT
Temp
°C
App
Temp
°C
Dew
Point
°C
Rel
Hum
%
Delta-T
°C
Wind Press
QNH
hPa
Press
MSL
hPa
Rain since
9am
mm
Dir  Spd
km/h
Gust
km/h
Spd
kts
Gust
kts
19/11:00pm 21.8 21.7 17.8 78 2.5 SE 15 20 8 11 - - 0.0
19/10:30pm 21.8 21.6 17.6 77 2.6 SSE 15 26 8 14 - - 0.0
19/10:00pm 21.9 22.1 17.7 77 2.6 SE 13 22 7 12 - - 0.0
19/09:30pm 22.0 21.5 17.8 77 2.6 SSE 17 22 9 12 - - 0.0
19/09:00pm 22.2 22.2 18.2 78 2.5 SE 15 20 8 11 - - 0.0
19/08:30pm 22.4 22.2 18.4 78 2.5 SE 17 24 9 13 - - 0.0
19/08:00pm 22.5 22.2 18.3 77 2.6 SE 17 24 9 13 - - 0.0
19/07:30pm 22.6 22.3 18.2 76 2.8 SE 17 24 9 13 - - 0.0
19/07:00pm 22.6 22.4 18.4 77 2.6 SSE 17 24 9 13 - - 0.0
19/06:30pm 22.9 22.6 18.2 75 2.9 SE 17 30 9 16 - - 0.0
19/06:00pm 22.7 22.5 18.5 77 2.6 SSE 17 30 9 16 - - 0.0
19/05:30pm 22.8 22.3 18.6 77 2.6 SSE 19 28 10 15 - - 0.0
19/05:00pm 23.0 22.5 18.7 77 2.7 SSE 19 32 10 17 - - 0.0
19/04:30pm 23.1 22.2 19.1 78 2.5 SE 22 33 12 18 - - 0.0
19/04:00pm 23.5 23.0 19.0 76 2.9 SE 20 32 11 17 - - 0.0
19/03:30pm 23.6 23.1 18.7 74 3.1 SSE 19 32 10 17 - - 0.0
19/03:00pm 23.8 23.5 19.1 75 3.0 SSE 19 30 10 16 - - 0.0
19/02:30pm 23.7 23.1 18.8 74 3.1 SE 20 37 11 20 - - 0.0
19/02:00pm 23.6 22.6 18.9 75 3.0 SSE 22 35 12 19 - - 0.0
19/01:30pm 23.5 22.6 19.0 76 2.9 SSE 22 33 12 18 - - 0.0
19/01:00pm 23.8 24.4 19.5 77 2.8 SSE 15 30 8 16 - - 0.0
19/12:30pm 23.6 23.2 19.3 77 2.7 SSE 20 35 11 19 - - 0.0
19/12:00pm 24.1 23.5 19.8 77 2.8 SSE 22 30 12 16 - - 0.0
19/11:30am 24.8 25.2 20.7 78 2.7 S 19 30 10 16 - - 0.0
19/11:00am 25.7 25.6 20.7 74 3.3 SSE 22 35 12 19 - - 0.0
19/10:30am 27.5 28.4 20.8 67 4.4 SSE 17 28 9 15 - - 0.0
19/10:00am 27.5 30.0 21.1 68 4.2 SSE 9 17 5 9 - - 0.0
19/09:30am 26.7 30.1 21.0 71 3.8 W 4 11 2 6 - - 0.0
19/09:00am 26.1 30.3 20.9 73 3.4 CALM 0 6 0 3 - - 0.0
19/08:30am 25.5 28.6 21.4 78 2.7 ENE 7 13 4 7 - - 0.0
19/08:00am 25.0 27.8 20.5 76 2.9 SE 6 9 3 5 - - 0.0
19/07:30am 24.8 28.5 20.7 78 2.7 SSE 2 7 1 4 - - 0.0
19/07:00am 24.7 27.6 20.6 78 2.7 ESE 6 7 3 4 - - 0.0
19/06:30am 24.3 27.7 20.2 78 2.7 SW 2 6 1 3 - - 0.0
19/06:00am 24.3 26.9 20.4 79 2.5 SSW 7 13 4 7 - - 0.0
19/05:30am 24.1 26.4 20.6 81 2.3 SSW 9 13 5 7 - - 0.0
19/05:00am 24.2 26.4 20.5 80 2.4 SSW 9 15 5 8 - - 0.0
19/04:30am 24.2 26.7 20.3 79 2.5 S 7 13 4 7 - - 0.0
19/04:00am 24.3 26.9 20.0 77 2.8 S 6 9 3 5 - - 0.0
19/03:30am 24.3 26.9 20.0 77 2.8 S 6 9 3 5 - - 0.0
19/03:00am 24.9 26.5 19.9 74 3.2 S 11 20 6 11 - - 0.0
19/02:30am 24.4 26.3 19.7 75 3.0 SSE 9 13 5 7 - - 0.0
19/02:00am 24.9 26.2 19.3 71 3.6 SE 11 17 6 9 - - 0.0
19/01:30am 25.5 26.8 19.4 69 3.9 ESE 11 20 6 11 - - 0.0
19/01:00am 25.8 27.0 19.0 66 4.4 ESE 11 15 6 8 - - 0.0
19/12:30am 26.8 27.4 18.6 60 5.2 SSE 13 17 7 9 - - 0.0
19/12:00am 27.7 27.6 19.5 61 5.3 SSE 19 28 10 15 - - 0.0
 
Date/Time
EDT
Temp
°C
App
Temp
°C
Dew
Point
°C
Rel
Hum
%
Delta-T
°C
Wind Press
QNH
hPa
Press
MSL
hPa
Rain since
9am
mm
Dir  Spd
km/h
Gust
km/h
Spd
kts
Gust
kts
18/11:30pm 29.0 28.6 19.3 55 6.3 SSE 20 32 11 17 - - 0.0
18/11:00pm 31.0 33.4 20.0 52 7.3 SE 7 11 4 6 - - 0.0
18/10:30pm 31.7 33.3 20.0 50 7.7 S 11 22 6 12 - - 0.0
18/10:00pm 31.7 33.9 20.3 50 7.6 WNW 9 17 5 9 - - 0.0
18/09:30pm 32.2 34.1 20.5 50 7.8 NE 11 24 6 13 - - 0.0
18/09:00pm 31.4 33.7 20.7 53 7.1 NE 9 17 5 9 - - 0.0
18/08:30pm 31.3 33.6 20.6 53 7.1 ENE 9 15 5 8 - - 0.0
18/08:00pm 31.5 33.7 20.4 51 7.4 ENE 9 17 5 9 - - 0.0
18/07:30pm 32.3 34.2 20.5 49 7.9 ENE 11 20 6 11 - - 0.0
18/07:00pm 33.0 34.9 20.5 47 8.3 ENE 11 20 6 11 - - 0.0
18/06:30pm 34.2 35.4 20.6 45 9.1 NE 15 26 8 14 - - 0.0
18/06:00pm 34.0 36.2 21.8 49 8.3 E 13 20 7 11 - - 0.0
18/05:30pm 34.6 37.6 22.6 49 8.3 E 11 19 6 10 - - 0.0
18/05:00pm 34.1 35.5 22.5 50 8.0 E 19 26 10 14 - - 0.0
18/04:30pm 33.7 35.1 22.5 52 7.7 E 19 26 10 14 - - 0.0
18/04:00pm 33.6 35.8 23.3 55 7.1 ESE 17 22 9 12 - - 0.0
18/03:30pm 33.7 36.7 23.4 55 7.2 ESE 13 20 7 11 - - 0.0
18/03:00pm 33.2 35.2 22.9 54 7.1 E 17 20 9 11 - - 0.0
18/02:30pm 34.9 37.3 22.9 49 8.3 ESE 15 20 8 11 - - 0.0
18/02:00pm 36.2 38.4 19.6 37 11.0 NNE 7 13 4 7 - - 0.0
18/01:30pm 35.6 38.5 21.1 43 9.8 N 7 15 4 8 - - 0.0
18/01:00pm 34.3 37.2 20.7 45 9.1 NNW 6 11 3 6 - - 0.0
18/12:30pm 33.1 35.9 21.6 51 7.8 NNW 9 15 5 8 - - 0.0
18/12:00pm 32.4 34.3 21.3 52 7.5 NW 13 19 7 10 - - 0.0
18/11:30am 31.2 33.3 20.2 52 7.3 NW 9 13 5 7 - - 0.0
18/11:00am 30.0 32.8 20.8 57 6.1 NW 7 17 4 9 - - 0.0
18/10:30am 28.9 32.6 21.4 64 5.0 W 4 11 2 6 - - 0.0
18/10:00am 27.2 29.7 20.3 66 4.5 E 7 11 4 6 - - 0.0
18/09:30am 26.2 28.4 19.3 65 4.4 ESE 6 9 3 5 - - 0.0
18/09:00am 26.0 28.5 19.9 69 4.0 SE 6 13 3 7 - - 0.0
18/08:30am 25.2 27.1 19.8 72 3.5 NE 9 17 5 9 - - 0.0
18/08:00am 24.8 26.9 20.1 75 3.0 ENE 9 17 5 9 - - 0.0
18/07:30am 24.6 26.8 20.3 77 2.8 SE 9 19 5 10 - - 0.0
18/07:00am 24.6 26.1 20.5 78 2.7 ESE 13 22 7 12 - - 0.0
18/06:30am 24.5 26.4 20.6 79 2.5 SE 11 19 6 10 - - 0.0
18/06:00am 24.6 27.0 20.9 80 2.4 E 9 20 5 11 - - 0.0
18/05:30am 24.4 26.3 20.5 79 2.5 ESE 11 20 6 11 - - 0.0
18/05:00am 24.4 25.5 20.5 79 2.5 ESE 15 24 8 13 - - 0.0
18/04:30am 24.4 25.5 20.5 79 2.5 ESE 15 26 8 14 - - 0.0
18/04:26am 24.5 25.9 20.4 78 2.7 ESE 13 20 7 11 - - 0.0
18/04:07am 24.3 25.0 20.4 79 2.5 ESE 17 26 9 14 - - 0.0
18/04:00am 24.4 25.0 20.3 78 2.7 ESE 17 28 9 15 - - 0.0
18/03:30am 24.2 24.7 20.1 78 2.7 SE 17 37 9 20 - - 0.0
18/03:00am 24.1 24.7 20.2 79 2.5 ESE 17 26 9 14 - - 0.0
18/02:30am 23.7 23.7 19.8 79 2.5 ESE 19 28 10 15 - - 0.0
18/02:00am 23.3 23.8 20.1 82 2.1 ESE 17 24 9 13 - - 0.0
18/01:30am 23.2 23.4 20.2 83 1.9 SE 19 26 10 14 - - 0.0
18/01:00am 23.1 23.6 20.1 83 1.9 SE 17 28 9 15 - - 0.0
18/12:30am 24.3 24.2 19.6 75 3.0 SE 19 28 10 15 - - 0.0
18/12:00am 24.2 24.1 19.5 75 3.0 SE 19 24 10 13 - - 0.0
 
Date/Time
EDT
Temp
°C
App
Temp
°C
Dew
Point
°C
Rel
Hum
%
Delta-T
°C
Wind Press
QNH
hPa
Press
MSL
hPa
Rain since
9am
mm
Dir  Spd
km/h
Gust
km/h
Spd
kts
Gust
kts
17/11:30pm 25.2 25.4 18.6 67 4.2 SSE 15 32 8 17 - - 0.0
17/11:00pm 25.3 26.6 18.5 66 4.3 ESE 9 13 5 7 - - 0.0
17/10:30pm 24.6 26.4 18.3 68 4.0 S 6 9 3 5 - - 0.0
17/10:00pm 26.6 28.5 18.5 61 5.2 NNW 6 9 3 5 - - 0.0
17/09:30pm 27.4 29.4 17.8 55 6.1 NNE 4 13 2 7 - - 0.0
17/09:00pm 27.6 29.0 17.7 54 6.3 ENE 7 17 4 9 - - 0.0
17/08:30pm 28.0 28.9 17.5 52 6.6 ENE 9 17 5 9 - - 0.0
17/08:00pm 28.8 28.8 17.3 49 7.2 ENE 13 28 7 15 - - 0.0
17/07:30pm 29.4 28.8 17.6 49 7.5 ENE 17 35 9 19 - - 0.0
17/07:00pm 30.7 31.9 19.1 50 7.5 ENE 11 20 6 11 - - 0.0
17/06:30pm 31.1 31.7 19.4 49 7.7 ENE 15 28 8 15 - - 0.0
17/06:00pm 31.6 32.6 20.2 50 7.6 E 15 24 8 13 - - 0.0
17/05:30pm 31.9 33.1 21.4 53 7.1 E 17 33 9 18 - - 0.0
17/05:00pm 32.3 34.1 21.8 54 7.1 E 15 24 8 13 - - 0.0
17/04:30pm 32.5 33.8 21.7 53 7.3 E 17 26 9 14 - - 0.0
17/04:00pm 32.8 34.8 22.9 56 6.8 E 17 24 9 13 - - 0.0
17/03:30pm 33.0 35.4 23.6 57 6.5 ESE 17 24 9 13 - - 0.0
17/03:00pm 31.4 33.3 22.7 60 6.0 ESE 17 26 9 14 - - 0.0
17/02:30pm 31.3 33.6 23.4 63 5.5 SE 17 28 9 15 - - 0.0
17/02:00pm 31.4 33.1 22.4 59 6.1 E 17 24 9 13 - - 0.0
17/01:30pm 32.2 34.2 22.9 58 6.4 E 17 20 9 11 - - 0.0
17/01:00pm 32.8 34.7 22.0 53 7.4 ESE 15 20 8 11 - - 0.0
17/12:30pm 33.5 36.1 22.0 51 7.8 E 11 17 6 9 - - 0.0
17/12:00pm 33.1 36.0 20.6 47 8.4 E 6 11 3 6 - - 0.0
17/11:30am 32.3 35.3 20.9 51 7.6 NNE 6 9 3 5 - - 0.0
17/11:00am 30.2 33.4 21.6 60 5.8 NE 7 11 4 6 - - 0.0
17/10:30am 29.4 32.1 21.4 62 5.4 NNW 9 17 5 9 - - 0.0
17/10:00am 27.8 30.5 21.3 67 4.3 WNW 9 15 5 8 - - 0.0
17/09:30am 27.2 31.7 22.2 74 3.4 NNE 2 9 1 5 - - 0.0
17/09:00am 25.6 28.8 21.3 77 2.8 WNW 6 9 3 5 - - 0.0
17/08:30am 24.9 28.9 21.4 81 2.3 NW 2 7 1 4 - - 0.0
17/08:00am 24.3 27.8 21.8 86 1.7 NW 6 9 3 5 - - 0.0
17/07:30am 23.6 27.7 21.5 88 1.4 ENE 2 11 1 6 - - 0.0
17/07:00am 23.4 27.0 22.0 92 0.9 ESE 6 7 3 4 - - 0.0
17/06:30am 23.3 27.2 21.9 92 0.9 SSE 4 11 2 6 - - 0.0
17/06:00am 23.3 27.3 22.1 93 0.8 SSW 4 11 2 6 - - 0.0
17/05:30am 23.4 27.1 22.2 93 0.8 SSE 6 9 3 5 - - 0.0
17/05:00am 23.4 27.6 22.4 94 0.7 S 4 9 2 5 - - 0.0
17/04:30am 23.3 26.8 22.1 93 0.8 S 7 11 4 6 - - 0.0
17/04:00am 23.3 26.9 22.3 94 0.7 SSE 7 11 4 6 - - 0.0
17/03:30am 23.3 26.5 22.3 94 0.7 SSE 9 15 5 8 - - 0.0
17/03:00am 23.3 26.5 22.3 94 0.7 SSE 9 13 5 7 - - 0.0
17/02:30am 23.3 26.5 22.3 94 0.7 SE 9 13 5 7 - - 0.0
17/02:00am 23.3 26.5 22.3 94 0.7 SE 9 15 5 8 - - 0.0
17/01:30am 23.0 26.2 22.3 96 0.5 SE 9 11 5 6 - - 0.0
17/01:00am 23.0 26.3 21.8 93 0.8 SE 7 9 4 5 - - 0.0
17/12:30am 23.4 26.3 21.7 90 1.1 SE 9 13 5 7 - - 0.0
17/12:00am 23.4 26.1 21.3 88 1.4 SE 9 13 5 7 - - 0.0
 
Date/Time
EDT
Temp
°C
App
Temp
°C
Dew
Point
°C
Rel
Hum
%
Delta-T
°C
Wind Press
QNH
hPa
Press
MSL
hPa
Rain since
9am
mm
Dir  Spd
km/h
Gust
km/h
Spd
kts
Gust
kts
16/11:30pm 23.6 26.6 21.3 87 1.5 SE 7 11 4 6 - - 0.0

Other Formats:

Comma delimited format used in spreadsheet applications
http://www.bom.gov.au/fwo/IDN60801/IDN60801.95765.axf

JavaScript Object Notation format (JSON) in row-major order
http://www.bom.gov.au/fwo/IDN60801/IDN60801.95765.json